Time;durP1;ratioP1;P1;durP2;ratioP2;P2;SDS_P1;SDS_P2;PMS_P1;PMS_P2;Temp;Humidity;BMP_temperature;BMP_pressure;BME280_temperature;BME280_humidity;BME280_pressure;Samples;Min_cycle;Max_cycle;Signal;HPM_P1;HPM_P2
2023/04/27 00:03:57;;;;;;;13.30;8.30;;;;;;;3.34;70.74;98946.27;224685;1280;22529;-80
2023/04/27 00:08:59;;;;;;;12.00;7.70;;;;;;;3.37;71.06;98944.91;224814;1280;23338;-80
2023/04/27 00:14:03;;;;;;;13.00;8.20;;;;;;;3.42;71.13;98938.05;224726;1284;22524;-80
2023/04/27 00:19:05;;;;;;;14.30;8.20;;;;;;;3.47;71.07;98940.90;224786;1281;22546;-80
2023/04/27 00:24:07;;;;;;;15.30;8.20;;;;;;;3.51;71.08;98938.63;224743;1283;22910;-80
2023/04/27 00:29:09;;;;;;;13.50;7.80;;;;;;;3.52;71.08;98936.95;224756;1284;22547;-79
2023/04/27 00:34:13;;;;;;;11.70;7.30;;;;;;;3.50;71.19;98937.25;224726;1284;22546;-80
2023/04/27 00:39:15;;;;;;;11.50;6.70;;;;;;;3.48;71.23;98937.80;224736;1283;22538;-79
2023/04/27 00:44:22;;;;;;;11.40;6.20;;;;;;;3.46;71.07;98941.15;224832;1281;22548;-78
2023/04/27 00:49:25;;;;;;;15.50;7.00;;;;;;;3.42;71.30;98941.87;224774;1284;22536;-80
2023/04/27 00:54:28;;;;;;;10.60;6.60;;;;;;;3.37;71.45;98945.59;224783;1283;22671;-80
2023/04/27 00:59:31;;;;;;;10.80;6.50;;;;;;;3.36;71.62;98945.02;224765;1283;22494;-81
2023/04/27 01:04:35;;;;;;;12.10;6.80;;;;;;;3.37;71.66;98945.64;224805;1282;22535;-79
2023/04/27 01:09:38;;;;;;;15.40;8.00;;;;;;;3.36;71.84;98947.43;224819;1284;22530;-79
2023/04/27 01:14:40;;;;;;;10.70;7.50;;;;;;;3.38;72.04;98948.70;224792;1283;22468;-80
2023/04/27 01:19:43;;;;;;;12.00;7.40;;;;;;;3.40;72.05;98952.10;224738;1284;24500;-79
2023/04/27 01:24:46;;;;;;;11.70;6.90;;;;;;;3.43;72.15;98956.77;224742;1280;22542;-79
2023/04/27 01:29:47;;;;;;;14.20;7.60;;;;;;;3.43;72.18;98958.44;224826;1283;22549;-79
2023/04/27 01:34:50;;;;;;;16.20;7.80;;;;;;;3.42;72.11;98960.54;224811;1282;22594;-79
2023/04/27 01:39:52;;;;;;;12.90;7.60;;;;;;;3.40;72.02;98956.16;224790;1279;22583;-80
2023/04/27 01:44:54;;;;;;;14.20;6.90;;;;;;;3.41;72.11;98962.19;224751;1284;25428;-79
2023/04/27 01:49:56;;;;;;;12.80;7.50;;;;;;;3.43;72.29;98962.67;224705;1283;22557;-81
2023/04/27 01:54:58;;;;;;;10.90;6.90;;;;;;;3.45;72.27;98956.90;224792;1282;24248;-81
2023/04/27 02:00:00;;;;;;;14.70;7.70;;;;;;;3.47;72.35;98959.35;224816;1284;22607;-80
2023/04/27 02:05:22;;;;;;;14.70;7.80;;;;;;;3.49;72.39;98962.08;224788;1281;25430;-81
2023/04/27 02:10:26;;;;;;;17.90;7.40;;;;;;;3.51;72.37;98963.67;224782;1284;22565;-79
2023/04/27 02:15:31;;;;;;;12.40;7.10;;;;;;;3.51;72.44;98961.75;224786;1284;23754;-80
2023/04/27 02:20:33;;;;;;;12.40;7.60;;;;;;;3.50;72.42;98963.40;224805;1281;22581;-80
2023/04/27 02:25:37;;;;;;;12.20;7.30;;;;;;;3.47;72.36;98961.25;224848;1283;22542;-79
2023/04/27 02:30:39;;;;;;;12.00;6.90;;;;;;;3.45;72.54;98959.89;224804;1280;23055;-79
2023/04/27 02:35:41;;;;;;;11.10;6.90;;;;;;;3.44;72.61;98962.61;224810;1281;22542;-79
2023/04/27 02:40:43;;;;;;;13.80;7.30;;;;;;;3.43;72.61;98962.70;224742;1280;22561;-79
2023/04/27 02:45:45;;;;;;;11.70;7.00;;;;;;;3.42;72.73;98962.79;224742;1277;23252;-78
2023/04/27 02:50:47;;;;;;;12.50;6.90;;;;;;;3.36;72.70;98958.20;224758;1284;22540;-79
2023/04/27 02:55:49;;;;;;;13.10;6.80;;;;;;;3.28;72.81;98959.88;224760;1284;22564;-80
2023/04/27 03:00:55;;;;;;;11.10;6.70;;;;;;;3.19;73.02;98961.89;224731;1284;22600;-79
2023/04/27 03:05:58;;;;;;;12.80;7.60;;;;;;;3.10;73.01;98959.21;224764;1282;22542;-79
2023/04/27 03:11:00;;;;;;;10.80;7.10;;;;;;;3.01;73.39;98967.11;224831;1284;22531;-80
2023/04/27 03:16:02;;;;;;;16.00;8.70;;;;;;;2.94;73.42;98973.90;224737;1283;22543;-80
2023/04/27 03:21:09;;;;;;;15.10;8.60;;;;;;;2.88;73.67;98976.36;224751;1284;22538;-78
2023/04/27 03:26:13;;;;;;;13.80;8.20;;;;;;;2.88;73.77;98975.80;224832;1281;22536;-79
2023/04/27 03:31:15;;;;;;;13.70;8.20;;;;;;;2.89;74.07;98977.10;224824;1283;25433;-79
2023/04/27 03:36:18;;;;;;;14.90;9.20;;;;;;;2.90;74.16;98980.70;224806;1284;22529;-79
2023/04/27 03:41:20;;;;;;;13.10;8.30;;;;;;;2.90;74.22;98988.30;224736;1283;24222;-79
2023/04/27 03:46:22;;;;;;;14.50;9.10;;;;;;;2.92;74.04;98992.16;224697;1284;22645;-79
2023/04/27 03:51:24;;;;;;;14.30;8.90;;;;;;;2.95;74.07;98996.73;224783;1284;22545;-80
2023/04/27 03:56:26;;;;;;;12.50;8.70;;;;;;;2.98;74.34;98996.77;224809;1284;22549;-78
2023/04/27 04:01:29;;;;;;;12.70;8.80;;;;;;;3.00;74.16;98999.25;224771;1283;24488;-78
2023/04/27 04:06:32;;;;;;;12.60;8.40;;;;;;;2.99;74.10;99002.44;224833;1284;22726;-78
2023/04/27 04:11:34;;;;;;;16.00;8.30;;;;;;;2.99;74.28;99009.02;224784;1284;22587;-78
2023/04/27 04:16:38;;;;;;;13.00;8.40;;;;;;;3.02;74.20;99011.98;224817;1284;22484;-80
2023/04/27 04:21:41;;;;;;;11.70;7.50;;;;;;;3.06;74.37;99015.59;224789;1283;22553;-79
2023/04/27 04:26:43;;;;;;;15.40;8.20;;;;;;;3.12;74.43;99022.92;224780;1283;22533;-79
2023/04/27 04:31:45;;;;;;;13.60;7.90;;;;;;;3.15;74.40;99025.54;224840;1284;22548;-79
2023/04/27 04:36:50;;;;;;;11.90;8.20;;;;;;;3.22;74.50;99029.85;224742;1284;24285;-79
2023/04/27 04:41:53;;;;;;;15.70;8.00;;;;;;;3.31;74.51;99031.97;224763;1283;25333;-77
2023/04/27 04:46:58;;;;;;;13.10;8.10;;;;;;;3.42;74.44;99030.54;224831;1282;22557;-78
2023/04/27 04:52:01;;;;;;;13.10;8.50;;;;;;;3.51;74.23;99032.08;224786;1284;22556;-78
2023/04/27 04:57:04;;;;;;;12.40;7.80;;;;;;;3.62;74.30;99039.88;224851;1282;23299;-80
2023/04/27 05:02:06;;;;;;;13.50;8.60;;;;;;;3.72;74.33;99048.85;224781;1282;25627;-80
2023/04/27 05:07:10;;;;;;;17.00;9.40;;;;;;;3.83;74.37;99052.39;224843;1266;22550;-80
2023/04/27 05:12:15;;;;;;;16.80;8.10;;;;;;;3.99;74.40;99058.13;224890;1283;22529;-80
2023/04/27 05:17:18;;;;;;;14.30;8.40;;;;;;;4.12;74.36;99062.10;224816;1284;24241;-81
2023/04/27 05:22:20;;;;;;;14.60;9.10;;;;;;;4.27;74.28;99065.95;224841;1284;22548;-78
2023/04/27 05:27:22;;;;;;;17.40;10.20;;;;;;;4.44;74.20;99063.67;224877;1282;22561;-81
2023/04/27 05:32:24;;;;;;;14.60;8.60;;;;;;;4.63;74.11;99066.10;224855;1284;22755;-78
2023/04/27 05:37:27;;;;;;;16.00;9.60;;;;;;;4.83;73.88;99073.95;224816;1284;24271;-78
2023/04/27 05:42:29;;;;;;;11.70;7.40;;;;;;;5.04;73.21;99073.83;224829;1277;22534;-79
2023/04/27 05:47:31;;;;;;;17.70;8.40;;;;;;;5.30;72.67;99077.30;224745;1280;22600;-76
2023/04/27 05:52:34;;;;;;;15.90;7.40;;;;;;;5.49;72.56;99078.93;224551;1283;22529;-76
2023/04/27 05:57:40;;;;;;;16.00;9.00;;;;;;;5.69;72.00;99083.95;224541;1279;22536;-76
2023/04/27 06:02:42;;;;;;;15.40;9.20;;;;;;;5.88;71.65;99087.17;224215;1276;22539;-78
2023/04/27 06:07:44;;;;;;;19.00;9.50;;;;;;;6.08;71.35;99085.73;224033;1260;137398;-77
2023/04/27 06:12:46;;;;;;;14.20;8.40;;;;;;;6.28;70.68;99094.28;224306;1260;138874;-77
2023/04/27 06:17:48;;;;;;;12.50;8.00;;;;;;;6.40;69.76;99097.02;224302;1282;139235;-78
2023/04/27 06:22:50;;;;;;;16.70;8.20;;;;;;;6.53;69.07;99096.69;224090;1275;138868;-76
2023/04/27 06:27:56;;;;;;;12.60;6.80;;;;;;;6.63;69.04;99094.52;224306;1264;22573;-77
2023/04/27 06:32:58;;;;;;;12.80;6.70;;;;;;;6.75;68.49;99097.57;224096;1280;138387;-77
2023/04/27 06:38:00;;;;;;;12.80;7.70;;;;;;;6.86;68.31;99097.64;224282;1276;137903;-77
2023/04/27 06:43:03;;;;;;;17.10;8.00;;;;;;;7.01;68.06;99103.80;224047;1266;138603;-75
2023/04/27 06:48:06;;;;;;;12.60;6.40;;;;;;;7.17;67.75;99113.51;224090;1272;138357;-78
2023/04/27 06:53:09;;;;;;;11.80;6.90;;;;;;;7.30;67.09;99112.86;224060;1268;138848;-78
2023/04/27 06:58:11;;;;;;;11.00;6.60;;;;;;;7.45;67.11;99111.87;224240;1264;22551;-76
2023/04/27 07:03:13;;;;;;;18.80;6.80;;;;;;;7.61;66.70;99106.84;224489;1283;137542;-77
2023/04/27 07:08:16;;;;;;;11.60;5.70;;;;;;;7.76;66.47;99102.73;224283;1277;137826;-77
2023/04/27 07:13:18;;;;;;;9.00;5.60;;;;;;;7.91;66.14;99103.77;224138;1274;138061;-76
2023/04/27 07:18:20;;;;;;;9.30;5.60;;;;;;;8.04;65.30;99104.63;224249;1277;137830;-77
2023/04/27 07:23:22;;;;;;;8.80;5.10;;;;;;;8.20;65.10;99097.86;224217;1269;137981;-77
2023/04/27 07:28:29;;;;;;;8.10;4.50;;;;;;;8.39;64.60;99101.98;224136;1264;138323;-78
2023/04/27 07:33:34;;;;;;;7.10;3.90;;;;;;;8.63;64.28;99100.88;224478;1264;22541;-77
2023/04/27 07:38:37;;;;;;;9.80;4.10;;;;;;;8.82;63.15;99098.95;224262;1273;138725;-77
2023/04/27 07:43:39;;;;;;;6.70;4.10;;;;;;;8.89;62.53;99098.94;224237;1264;137870;-76
2023/04/27 07:48:41;;;;;;;6.80;4.10;;;;;;;9.03;61.95;99095.57;224328;1280;137988;-78
2023/04/27 07:53:43;;;;;;;8.50;4.20;;;;;;;9.26;61.87;99097.79;224300;1266;137922;-77
2023/04/27 07:58:48;;;;;;;5.70;3.60;;;;;;;9.61;61.64;99096.94;224224;1260;138094;-78
2023/04/27 08:03:50;;;;;;;7.20;4.00;;;;;;;9.95;59.49;99097.93;224415;1261;22525;-77
2023/04/27 08:08:57;;;;;;;8.00;4.30;;;;;;;10.14;58.53;99096.15;224291;1263;137956;-77
2023/04/27 08:13:59;;;;;;;6.80;3.80;;;;;;;10.33;58.95;99086.93;224389;1265;138218;-78
2023/04/27 08:19:01;;;;;;;8.80;3.70;;;;;;;10.52;58.93;99089.64;224313;1263;138410;-78
2023/04/27 08:24:05;;;;;;;8.30;4.10;;;;;;;10.54;57.38;99099.05;224286;1265;138419;-77
2023/04/27 08:29:07;;;;;;;7.90;3.50;;;;;;;10.50;56.62;99095.08;224281;1280;138291;-77
2023/04/27 08:34:25;;;;;;;6.00;3.80;;;;;;;10.53;56.27;99098.08;224435;1283;138352;-77
2023/04/27 08:39:27;;;;;;;5.80;3.80;;;;;;;10.72;56.45;99102.98;224432;1280;23261;-77
2023/04/27 08:44:29;;;;;;;6.20;3.00;;;;;;;10.98;55.91;99100.71;224296;1280;138272;-79
2023/04/27 08:49:32;;;;;;;5.50;3.20;;;;;;;11.24;55.51;99100.52;224398;1283;138547;-77
2023/04/27 08:54:34;;;;;;;6.90;3.50;;;;;;;11.44;55.12;99106.48;224310;1278;138341;-76
2023/04/27 08:59:37;;;;;;;5.40;3.50;;;;;;;11.46;54.26;99112.45;224176;1282;138539;-78
2023/04/27 09:04:39;;;;;;;8.70;3.40;;;;;;;11.33;53.55;99107.61;224162;1279;138778;-77
2023/04/27 09:09:43;;;;;;;5.90;3.60;;;;;;;11.21;53.60;99109.37;224337;1282;22762;-76
2023/04/27 09:15:07;;;;;;;6.90;3.20;;;;;;;11.20;53.76;99114.80;224431;1272;138081;-76
2023/04/27 09:20:12;;;;;;;6.20;3.30;;;;;;;11.30;54.19;99109.03;224520;1281;138144;-76
2023/04/27 09:25:29;;;;;;;5.90;3.00;;;;;;;11.55;53.66;99107.75;224261;1279;138200;-77
2023/04/27 09:30:31;;;;;;;4.70;3.30;;;;;;;11.72;52.88;99101.02;224330;1277;138182;-74
2023/04/27 09:35:33;;;;;;;5.90;3.50;;;;;;;11.70;51.78;99100.79;224234;1268;138317;-74
2023/04/27 09:40:35;;;;;;;6.20;3.40;;;;;;;11.63;52.18;99097.14;224268;1280;138246;-75
2023/04/27 09:45:38;;;;;;;5.50;3.80;;;;;;;11.90;52.50;99102.05;224322;1277;22555;-73
2023/04/27 09:50:42;;;;;;;3.50;3.20;;;;;;;12.25;52.42;99100.34;224073;1270;138012;-74
2023/04/27 09:56:07;;;;;;;6.40;3.50;;;;;;;12.54;51.27;99103.06;224219;1271;137996;-75
2023/04/27 10:01:17;;;;;;;5.20;3.40;;;;;;;12.41;50.10;99099.25;224319;1281;138362;-75
2023/04/27 10:06:37;;;;;;;5.20;3.30;;;;;;;12.29;50.40;99099.41;224391;1265;138425;-76
2023/04/27 10:11:43;;;;;;;5.80;3.30;;;;;;;12.45;50.89;99102.38;224415;1277;138199;-77
2023/04/27 10:16:46;;;;;;;6.60;3.40;;;;;;;12.59;50.64;99102.58;224437;1277;138847;-75
2023/04/27 10:21:57;;;;;;;5.60;4.60;;;;;;;12.67;50.30;99103.08;224565;1278;22594;-76
2023/04/27 10:27:08;;;;;;;6.70;3.80;;;;;;;12.63;49.15;99108.80;224304;1276;166670;-76
2023/04/27 10:32:13;;;;;;;5.80;4.00;;;;;;;12.43;48.86;99104.48;224455;1283;139110;-75
2023/04/27 10:37:15;;;;;;;5.70;3.50;;;;;;;12.23;48.79;99106.40;224345;1263;138576;-75
2023/04/27 10:42:27;;;;;;;6.20;3.80;;;;;;;11.99;49.14;99104.66;224101;1260;138125;-74
2023/04/27 10:47:38;;;;;;;6.60;3.90;;;;;;;11.78;49.51;99105.08;223687;1276;139210;-72
2023/04/27 10:52:42;;;;;;;4.50;3.50;;;;;;;11.76;49.96;99104.48;223452;1280;138719;-76
2023/04/27 10:57:48;;;;;;;6.00;3.60;;;;;;;11.73;50.02;99107.86;224449;1280;23305;-78
2023/04/27 11:02:53;;;;;;;5.60;3.70;;;;;;;11.74;49.86;99106.10;224384;1277;138191;-77
2023/04/27 11:08:08;;;;;;;5.30;4.00;;;;;;;11.80;49.85;99108.72;224428;1280;138313;-77
2023/04/27 11:13:19;;;;;;;4.70;3.70;;;;;;;11.98;50.15;99109.98;224377;1273;138372;-75
2023/04/27 11:18:23;;;;;;;6.60;4.00;;;;;;;12.24;49.64;99113.34;224297;1268;138191;-76
2023/04/27 11:23:27;;;;;;;6.10;4.20;;;;;;;12.46;49.03;99107.73;224266;1264;138515;-77
2023/04/27 11:28:30;;;;;;;4.60;3.50;;;;;;;12.62;49.14;99110.17;224381;1262;138411;-78
2023/04/27 11:33:32;;;;;;;6.10;3.50;;;;;;;12.85;49.34;99106.83;224473;1279;22598;-77
2023/04/27 11:38:36;;;;;;;4.50;3.10;;;;;;;13.01;48.71;99105.30;224337;1266;138798;-78
2023/04/27 11:43:48;;;;;;;7.70;4.00;;;;;;;12.90;48.15;99109.23;224387;1264;138444;-78
2023/04/27 11:48:50;;;;;;;5.20;3.80;;;;;;;12.70;48.12;99112.36;224414;1263;138450;-76
2023/04/27 11:53:52;;;;;;;5.60;3.90;;;;;;;12.51;48.39;99108.58;224261;1263;139388;-79
2023/04/27 11:58:54;;;;;;;7.50;4.40;;;;;;;12.53;48.75;99107.05;224233;1265;138238;-78
2023/04/27 12:03:56;;;;;;;8.10;4.30;;;;;;;12.65;48.68;99112.98;224309;1264;22950;-77
2023/04/27 12:09:04;;;;;;;5.50;4.40;;;;;;;12.68;48.31;99115.33;224158;1280;139461;-77
2023/04/27 12:14:06;;;;;;;5.80;4.10;;;;;;;12.84;48.39;99112.00;224234;1281;138173;-77
2023/04/27 12:19:09;;;;;;;5.50;4.30;;;;;;;13.06;48.40;99111.94;224189;1283;138227;-78
2023/04/27 12:24:11;;;;;;;7.60;4.20;;;;;;;13.18;47.95;99106.71;224230;1277;138874;-81
2023/04/27 12:29:14;;;;;;;4.50;3.20;;;;;;;13.31;47.30;99108.10;224144;1284;138317;-81
2023/04/27 12:34:17;;;;;;;4.60;3.50;;;;;;;13.29;46.68;99102.36;224476;1280;22537;-80
2023/04/27 12:39:20;;;;;;;6.30;3.40;;;;;;;13.48;47.25;99098.20;224560;1283;22540;-81
2023/04/27 12:44:23;;;;;;;6.20;3.80;;;;;;;13.66;46.96;99100.46;224392;1271;138877;-82
2023/04/27 12:49:25;;;;;;;4.50;3.80;;;;;;;13.82;46.71;99100.01;224470;1280;137336;-80
2023/04/27 12:54:28;;;;;;;5.30;4.00;;;;;;;13.69;45.75;99101.49;224420;1277;138831;-83
2023/04/27 12:59:29;;;;;;;5.90;3.60;;;;;;;13.32;45.77;99098.34;224424;1277;138342;-80
2023/04/27 13:04:32;;;;;;;6.70;3.90;;;;;;;12.98;46.33;99099.81;224314;1261;138977;-75
2023/04/27 13:09:35;;;;;;;6.30;3.40;;;;;;;12.71;46.92;99102.69;224255;1268;23398;-74
2023/04/27 13:14:37;;;;;;;6.00;4.00;;;;;;;12.36;47.10;99102.77;224412;1276;137839;-73
2023/04/27 13:19:39;;;;;;;5.40;3.90;;;;;;;12.05;47.80;99101.92;224433;1277;138209;-74
2023/04/27 13:24:41;;;;;;;6.90;4.00;;;;;;;11.88;48.45;99101.59;224398;1280;138402;-74
2023/04/27 13:29:43;;;;;;;7.10;3.70;;;;;;;11.85;48.94;99098.77;224500;1283;138181;-75
2023/04/27 13:34:46;;;;;;;5.10;4.00;;;;;;;11.97;49.05;99101.55;224374;1268;138294;-77
2023/04/27 13:39:47;;;;;;;6.00;3.60;;;;;;;12.17;48.69;99099.73;224479;1280;22557;-78
2023/04/27 13:44:50;;;;;;;5.20;3.50;;;;;;;12.51;48.34;99100.52;224360;1278;137997;-72
2023/04/27 13:49:52;;;;;;;4.50;2.90;;;;;;;12.93;47.97;99096.80;224445;1283;138127;-74
2023/04/27 13:54:54;;;;;;;5.40;3.10;;;;;;;13.18;47.54;99096.83;224349;1263;138371;-73
2023/04/27 13:59:56;;;;;;;4.40;2.60;;;;;;;13.30;46.69;99095.68;224281;1277;138208;-73
2023/04/27 14:04:58;;;;;;;3.30;2.70;;;;;;;13.20;46.25;99098.55;224332;1274;22960;-75
2023/04/27 14:10:05;;;;;;;5.50;3.30;;;;;;;13.04;46.40;99097.91;224636;1283;22523;-74
2023/04/27 14:15:07;;;;;;;4.40;3.50;;;;;;;12.75;46.39;99095.05;224772;1278;22544;-74
2023/04/27 14:20:10;;;;;;;6.60;3.40;;;;;;;12.52;47.31;99107.57;224476;1283;23053;-75
2023/04/27 14:25:12;;;;;;;6.60;3.40;;;;;;;12.31;47.57;99107.63;224494;1280;22554;-74
2023/04/27 14:30:14;;;;;;;3.10;2.60;;;;;;;12.24;47.72;99111.26;224709;1281;24422;-74
2023/04/27 14:35:17;;;;;;;5.50;3.20;;;;;;;12.15;47.57;99109.87;224770;1283;22567;-74
2023/04/27 14:40:19;;;;;;;5.30;3.10;;;;;;;11.99;47.89;99115.25;224753;1281;22562;-74
2023/04/27 14:45:21;;;;;;;5.10;3.40;;;;;;;11.77;48.36;99115.10;224769;1281;23341;-75
2023/04/27 14:50:27;;;;;;;6.00;4.00;;;;;;;11.54;48.84;99118.89;224855;1283;22549;-75
2023/04/27 14:55:29;;;;;;;7.50;4.50;;;;;;;11.32;49.41;99124.84;224842;1264;22539;-74
2023/04/27 15:00:31;;;;;;;8.50;4.10;;;;;;;11.19;50.02;99122.16;224647;1283;24241;-75
2023/04/27 15:05:33;;;;;;;6.10;3.50;;;;;;;11.11;50.15;99125.73;224759;1281;22543;-74
2023/04/27 15:10:34;;;;;;;7.70;4.00;;;;;;;11.07;50.29;99127.13;224779;1280;22560;-74
2023/04/27 15:15:39;;;;;;;11.30;7.60;;;;;;;11.08;50.41;99129.86;224763;1281;23456;-75
2023/04/27 15:20:41;;;;;;;6.60;4.20;;;;;;;11.10;50.28;99130.59;224787;1281;22542;-75
2023/04/27 15:25:47;;;;;;;4.90;3.80;;;;;;;11.04;50.25;99133.10;224725;1283;22550;-74
2023/04/27 15:30:49;;;;;;;8.00;4.30;;;;;;;10.99;50.61;99133.39;224755;1280;22535;-75
2023/04/27 15:35:52;;;;;;;5.40;3.30;;;;;;;10.91;50.69;99133.34;224723;1279;22553;-74
2023/04/27 15:40:54;;;;;;;5.00;3.90;;;;;;;10.86;50.77;99135.44;224852;1281;22530;-75
2023/04/27 15:45:56;;;;;;;4.70;3.70;;;;;;;10.89;51.13;99133.45;224847;1277;22575;-74
2023/04/27 15:50:58;;;;;;;5.90;3.60;;;;;;;11.00;51.18;99137.84;224764;1282;22573;-75
2023/04/27 15:56:00;;;;;;;5.80;3.70;;;;;;;11.10;51.33;99136.27;224754;1277;22522;-74
2023/04/27 16:01:01;;;;;;;7.10;4.10;;;;;;;11.18;51.16;99134.92;224790;1277;22714;-74
2023/04/27 16:06:05;;;;;;;4.20;3.70;;;;;;;11.22;51.18;99129.56;224813;1278;22543;-75
2023/04/27 16:11:07;;;;;;;5.20;3.90;;;;;;;11.27;51.32;99132.48;224765;1281;22537;-74
2023/04/27 16:16:09;;;;;;;4.30;3.80;;;;;;;11.30;51.12;99132.45;224755;1280;22564;-73
2023/04/27 16:21:11;;;;;;;8.10;4.70;;;;;;;11.27;51.10;99135.77;224819;1281;22536;-73
2023/04/27 16:26:13;;;;;;;7.10;4.30;;;;;;;11.21;51.52;99137.77;224768;1281;22521;-74
2023/04/27 16:31:15;;;;;;;4.90;3.80;;;;;;;11.07;51.58;99133.67;224760;1283;25383;-74
2023/04/27 16:36:18;;;;;;;5.60;4.10;;;;;;;11.03;51.87;99134.13;224744;1283;22548;-74
2023/04/27 16:41:20;;;;;;;6.50;4.00;;;;;;;10.97;51.61;99137.48;224786;1278;22570;-74
2023/04/27 16:46:23;;;;;;;6.40;4.00;;;;;;;10.82;51.46;99138.42;224932;1280;22530;-73
2023/04/27 16:51:25;;;;;;;5.10;3.60;;;;;;;10.76;51.93;99137.53;224922;1283;22562;-74
2023/04/27 16:56:29;;;;;;;5.40;3.90;;;;;;;10.70;51.53;99136.05;224838;1283;22574;-73
2023/04/27 17:01:32;;;;;;;5.80;3.70;;;;;;;10.63;51.60;99139.86;224817;1281;22540;-74
2023/04/27 17:06:34;;;;;;;4.40;3.50;;;;;;;10.55;51.72;99141.19;224779;1283;22526;-75
2023/04/27 17:11:36;;;;;;;6.60;3.80;;;;;;;10.47;52.19;99149.58;224855;1278;23856;-75
2023/04/27 17:16:38;;;;;;;5.90;3.90;;;;;;;10.34;52.21;99155.80;224908;1267;22549;-74
2023/04/27 17:21:40;;;;;;;6.00;3.90;;;;;;;10.24;52.10;99153.06;224821;1283;22534;-74
2023/04/27 17:26:42;;;;;;;5.80;4.10;;;;;;;10.18;52.31;99153.30;224797;1278;22545;-74
2023/04/27 17:31:44;;;;;;;6.70;4.40;;;;;;;10.09;52.45;99153.04;224745;1283;22550;-74
2023/04/27 17:36:47;;;;;;;6.40;4.30;;;;;;;9.99;53.00;99153.91;224861;1277;22548;-74
2023/04/27 17:41:49;;;;;;;5.20;3.90;;;;;;;9.88;52.75;99153.88;224826;1283;23016;-75
2023/04/27 17:46:52;;;;;;;7.20;3.90;;;;;;;9.76;53.02;99155.27;224743;1281;22541;-74
2023/04/27 17:51:55;;;;;;;5.90;3.80;;;;;;;9.63;53.12;99156.52;224873;1280;22537;-74
2023/04/27 17:56:57;;;;;;;7.30;3.90;;;;;;;9.50;53.00;99154.01;224845;1278;22534;-75
2023/04/27 18:01:59;;;;;;;6.60;4.40;;;;;;;9.36;53.74;99154.86;224814;1283;22559;-73
2023/04/27 18:07:01;;;;;;;7.00;4.20;;;;;;;9.20;54.12;99155.21;224870;1281;25526;-74
2023/04/27 18:12:09;;;;;;;7.00;4.70;;;;;;;9.01;53.82;99163.70;224781;1283;22622;-74
2023/04/27 18:17:12;;;;;;;9.40;5.30;;;;;;;8.80;54.20;99165.78;224638;1283;22539;-75
2023/04/27 18:22:14;;;;;;;19.80;15.90;;;;;;;8.59;54.61;99166.83;224720;1281;22532;-74
2023/04/27 18:27:17;;;;;;;10.90;6.00;;;;;;;8.39;55.32;99177.58;224852;1281;22559;-74
2023/04/27 18:32:20;;;;;;;11.80;6.50;;;;;;;8.19;55.85;99177.41;224761;1283;22635;-74
2023/04/27 18:37:23;;;;;;;13.80;7.20;;;;;;;8.01;56.14;99178.00;224827;1280;23606;-75
2023/04/27 18:42:25;;;;;;;9.10;6.00;;;;;;;7.85;56.44;99182.84;224723;1282;22579;-76
2023/04/27 18:47:27;;;;;;;8.60;7.10;;;;;;;7.69;56.15;99183.48;224750;1283;22541;-73
2023/04/27 18:52:29;;;;;;;11.00;7.90;;;;;;;7.54;56.49;99186.66;224753;1282;22655;-73
2023/04/27 18:57:32;;;;;;;23.50;12.80;;;;;;;7.38;56.77;99186.88;224813;1282;22537;-73
2023/04/27 19:02:34;;;;;;;15.30;9.90;;;;;;;7.22;56.92;99191.17;224725;1283;23779;-74
2023/04/27 19:07:36;;;;;;;24.70;13.10;;;;;;;7.06;57.14;99197.46;224699;1281;22530;-74
2023/04/27 19:12:39;;;;;;;33.70;19.60;;;;;;;6.91;58.11;99196.06;224794;1280;22544;-73
2023/04/27 19:17:41;;;;;;;35.70;18.60;;;;;;;6.77;58.42;99199.56;224831;1283;22591;-74
2023/04/27 19:22:43;;;;;;;69.30;42.30;;;;;;;6.64;58.61;99204.55;224827;1283;22680;-75
2023/04/27 19:27:46;;;;;;;46.90;24.40;;;;;;;6.53;59.75;99210.58;224823;1273;22566;-73
2023/04/27 19:32:49;;;;;;;46.10;24.20;;;;;;;6.42;60.28;99212.90;224839;1280;22570;-73
2023/04/27 19:37:52;;;;;;;47.70;26.10;;;;;;;6.32;60.61;99217.18;224727;1283;23116;-74
2023/04/27 19:42:54;;;;;;;46.10;23.90;;;;;;;6.22;60.84;99221.86;224728;1276;22530;-74
2023/04/27 19:47:56;;;;;;;54.60;26.90;;;;;;;6.10;61.13;99215.49;224758;1283;22534;-73
2023/04/27 19:52:59;;;;;;;51.70;26.60;;;;;;;5.97;61.38;99219.69;224834;1283;25435;-74
2023/04/27 19:58:01;;;;;;;48.70;24.20;;;;;;;5.84;61.53;99216.44;224810;1281;22549;-74
2023/04/27 20:03:05;;;;;;;44.60;24.10;;;;;;;5.70;61.94;99221.23;224720;1283;24260;-74
2023/04/27 20:08:07;;;;;;;42.30;22.50;;;;;;;5.56;62.07;99217.48;224671;1283;22545;-74
2023/04/27 20:13:09;;;;;;;40.70;22.30;;;;;;;5.44;62.30;99216.91;224713;1283;22540;-74
2023/04/27 20:18:11;;;;;;;33.40;20.70;;;;;;;5.33;62.73;99216.02;224774;1279;25383;-74
2023/04/27 20:23:14;;;;;;;32.10;21.20;;;;;;;5.23;62.95;99218.53;224807;1281;22554;-74
2023/04/27 20:28:16;;;;;;;31.40;19.90;;;;;;;5.15;63.19;99223.90;224790;1277;22620;-73
2023/04/27 20:33:18;;;;;;;38.80;22.80;;;;;;;5.07;63.62;99229.99;224792;1283;22706;-74
2023/04/27 20:38:20;;;;;;;35.30;22.60;;;;;;;5.00;63.91;99232.77;224734;1283;22563;-74
2023/04/27 20:43:23;;;;;;;39.30;24.70;;;;;;;4.92;63.94;99229.27;224676;1282;23051;-74
2023/04/27 20:48:27;;;;;;;36.90;22.00;;;;;;;4.85;64.15;99231.21;224812;1283;22532;-73
2023/04/27 20:53:29;;;;;;;43.20;21.80;;;;;;;4.77;64.45;99233.11;224771;1282;25429;-74
2023/04/27 20:58:32;;;;;;;31.10;20.20;;;;;;;4.70;64.51;99231.20;224807;1283;23686;-73
2023/04/27 21:03:34;;;;;;;36.80;22.50;;;;;;;4.62;64.69;99232.94;224759;1281;22543;-74
2023/04/27 21:08:41;;;;;;;40.50;23.10;;;;;;;4.54;64.90;99234.88;224730;1283;22602;-74
2023/04/27 21:13:47;;;;;;;40.10;23.20;;;;;;;4.46;65.42;99232.64;224788;1283;22555;-74
2023/04/27 21:18:49;;;;;;;44.50;23.90;;;;;;;4.38;65.44;99229.39;224792;1281;22520;-73
2023/04/27 21:23:50;;;;;;;54.00;27.50;;;;;;;4.29;65.90;99226.89;224748;1279;22541;-73
2023/04/27 21:29:08;;;;;;;65.20;32.30;;;;;;;4.16;66.61;99229.02;224832;1281;22641;-73
2023/04/27 21:34:09;;;;;;;70.10;35.30;;;;;;;4.08;67.03;99229.45;224812;1281;22534;-73
2023/04/27 21:39:14;;;;;;;61.60;30.00;;;;;;;3.99;67.45;99233.38;224828;1281;22761;-73
2023/04/27 21:44:16;;;;;;;50.00;26.40;;;;;;;3.89;67.90;99236.00;224819;1281;22652;-74
2023/04/27 21:49:20;;;;;;;50.50;28.70;;;;;;;3.79;68.04;99235.29;224865;1283;22592;-73
2023/04/27 21:54:23;;;;;;;52.80;27.50;;;;;;;3.70;68.40;99237.19;224881;1283;22552;-74
2023/04/27 21:59:25;;;;;;;55.50;27.70;;;;;;;3.62;68.77;99239.09;224858;1277;22542;-74
2023/04/27 22:04:27;;;;;;;56.90;30.20;;;;;;;3.54;69.17;99233.33;224860;1283;24233;-73
2023/04/27 22:09:30;;;;;;;61.30;33.70;;;;;;;3.45;69.09;99235.45;224829;1262;22644;-75
2023/04/27 22:14:32;;;;;;;60.00;32.60;;;;;;;3.38;69.43;99235.60;224870;1281;22534;-73
2023/04/27 22:19:34;;;;;;;56.80;32.50;;;;;;;3.31;69.63;99235.31;224760;1283;22533;-73
2023/04/27 22:24:37;;;;;;;57.70;30.20;;;;;;;3.25;70.15;99236.89;224619;1283;314487;-73
2023/04/27 22:29:39;;;;;;;52.90;31.20;;;;;;;3.19;70.18;99238.09;224870;1283;22532;-73
2023/04/27 22:34:41;;;;;;;55.70;30.60;;;;;;;3.13;70.34;99236.30;224813;1272;25362;-74
2023/04/27 22:39:44;;;;;;;56.10;32.60;;;;;;;3.06;70.84;99244.35;224807;1282;22557;-74
2023/04/27 22:44:46;;;;;;;58.70;32.90;;;;;;;3.01;70.96;99241.48;224751;1283;22557;-73
2023/04/27 22:49:48;;;;;;;52.40;31.80;;;;;;;2.98;71.10;99243.19;224785;1283;22571;-74
2023/04/27 22:54:51;;;;;;;53.00;31.10;;;;;;;2.95;71.14;99241.87;224785;1283;22534;-73
2023/04/27 22:59:53;;;;;;;52.80;32.30;;;;;;;2.93;71.48;99237.70;224777;1283;22533;-73
2023/04/27 23:04:55;;;;;;;50.60;29.70;;;;;;;2.93;71.50;99239.66;224791;1283;22535;-73
2023/04/27 23:10:01;;;;;;;50.60;29.80;;;;;;;2.93;71.75;99240.98;224843;1283;22588;-73
2023/04/27 23:15:06;;;;;;;50.20;28.90;;;;;;;2.96;71.81;99241.46;224751;1283;22572;-73
2023/04/27 23:20:10;;;;;;;51.40;29.00;;;;;;;3.01;71.65;99240.32;224695;1284;22538;-73
2023/04/27 23:25:30;;;;;;;;;;;;;;;3.08;71.65;99238.34;224776;1284;22613;-73